Time;durP1;ratioP1;P1;durP2;ratioP2;P2;SDS_P1;SDS_P2;PMS_P1;PMS_P2;Temp;Humidity;BMP_temperature;BMP_pressure;BME280_temperature;BME280_humidity;BME280_pressure;Samples;Min_cycle;Max_cycle;Signal;HPM_P1;HPM_P2
2021/06/18 00:00:34;;;;;;;10.57;6.07;;;23.10;99.90;;;;;;5091375;23;20022;-77
2021/06/18 00:02:37;;;;;;;10.38;6.22;;;23.10;99.90;;;;;;5090487;23;20324;-75
2021/06/18 00:04:40;;;;;;;10.73;6.35;;;23.20;99.90;;;;;;5091385;23;20014;-75
2021/06/18 00:06:43;;;;;;;11.98;6.80;;;23.20;99.90;;;;;;5090438;23;20025;-74
2021/06/18 00:08:46;;;;;;;10.40;6.20;;;23.30;99.90;;;;;;5091184;23;20089;-75
2021/06/18 00:10:49;;;;;;;9.15;5.88;;;23.30;99.90;;;;;;5090085;23;20591;-76
2021/06/18 00:12:53;;;;;;;9.95;6.07;;;23.20;99.90;;;;;;5092174;23;20021;-76
2021/06/18 00:14:59;;;;;;;16.05;6.38;;;23.20;99.90;;;;;;5090001;23;20021;-75
2021/06/18 00:17:04;;;;;;;11.10;6.15;;;23.30;99.90;;;;;;5090983;23;20021;-75
2021/06/18 00:19:08;;;;;;;9.15;6.55;;;23.40;99.90;;;;;;5091567;23;20025;-75
2021/06/18 00:21:11;;;;;;;11.93;6.77;;;23.30;99.90;;;;;;5089645;23;20018;-75
2021/06/18 00:23:14;;;;;;;10.80;6.22;;;23.20;99.90;;;;;;5089993;23;20025;-76
2021/06/18 00:25:17;;;;;;;10.82;6.25;;;23.10;99.90;;;;;;5091058;23;20076;-75
2021/06/18 00:27:20;;;;;;;12.38;6.40;;;23.10;99.90;;;;;;5091465;23;20076;-76
2021/06/18 00:29:23;;;;;;;9.10;6.63;;;23.20;99.90;;;;;;5093151;23;20017;-76
2021/06/18 00:31:26;;;;;;;14.25;6.57;;;23.00;99.90;;;;;;5093028;23;20465;-75
2021/06/18 00:33:30;;;;;;;6.65;5.20;;;23.00;99.90;;;;;;5092213;23;20447;-77
2021/06/18 00:35:34;;;;;;;12.15;6.50;;;23.10;99.90;;;;;;5067682;23;20093;-76
2021/06/18 00:37:37;;;;;;;11.48;6.38;;;23.10;99.90;;;;;;5094722;23;20025;-76
2021/06/18 00:39:40;;;;;;;11.02;6.53;;;23.00;99.90;;;;;;5092921;23;20021;-76
2021/06/18 00:41:43;;;;;;;9.23;5.88;;;23.10;99.90;;;;;;5093169;23;20048;-76
2021/06/18 00:43:51;;;;;;;14.85;6.30;;;23.20;99.90;;;;;;5064783;23;20088;-76
2021/06/18 00:45:54;;;;;;;11.57;6.78;;;23.10;99.90;;;;;;5091306;23;20028;-76
2021/06/18 00:48:00;;;;;;;11.10;6.35;;;23.20;99.90;;;;;;5091643;23;20017;-75
2021/06/18 00:50:05;;;;;;;11.38;6.00;;;23.20;99.90;;;;;;5091296;23;20044;-76
2021/06/18 00:52:08;;;;;;;12.02;6.97;;;23.10;99.90;;;;;;5090745;23;20025;-75
2021/06/18 00:54:13;;;;;;;12.98;7.28;;;23.10;99.90;;;;;;5091285;23;20487;-76
2021/06/18 00:56:16;;;;;;;12.93;6.82;;;23.10;99.90;;;;;;5065264;23;20020;-75
2021/06/18 00:58:20;;;;;;;12.20;7.03;;;23.00;99.90;;;;;;5092753;23;20021;-75
2021/06/18 01:00:23;;;;;;;10.73;7.10;;;22.90;99.90;;;;;;5090869;23;20511;-75
2021/06/18 01:02:26;;;;;;;17.73;7.70;;;22.90;99.90;;;;;;5064854;23;20014;-74
2021/06/18 01:04:31;;;;;;;13.60;7.38;;;23.00;99.90;;;;;;5090642;23;20020;-75
2021/06/18 01:06:38;;;;;;;15.05;7.82;;;22.90;99.90;;;;;;5090668;23;20073;-77
2021/06/18 01:08:46;;;;;;;14.00;6.90;;;22.90;99.90;;;;;;5064563;23;20025;-75
2021/06/18 01:10:55;;;;;;;15.00;6.25;;;23.10;99.90;;;;;;5066827;23;20022;-74
2021/06/18 01:13:08;;;;;;;7.80;5.43;;;23.10;99.90;;;;;;5066473;23;20018;-76
2021/06/18 01:15:14;;;;;;;13.65;6.10;;;22.90;99.90;;;;;;5066436;23;20022;-74
2021/06/18 01:17:21;;;;;;;9.98;6.05;;;23.00;99.90;;;;;;5066684;23;20033;-77
2021/06/18 01:19:31;;;;;;;10.10;5.88;;;22.90;99.90;;;;;;5066724;23;20022;-77
2021/06/18 01:21:39;;;;;;;6.78;4.63;;;22.90;99.90;;;;;;5067380;23;20560;-75
2021/06/18 01:24:01;;;;;;;8.68;4.70;;;23.00;99.90;;;;;;5065657;23;20095;-76
2021/06/18 01:26:15;;;;;;;8.82;4.25;;;22.90;99.90;;;;;;4987656;23;20049;-76
2021/06/18 01:28:41;;;;;;;6.45;4.05;;;23.00;99.90;;;;;;5066762;23;20026;-75
2021/06/18 01:30:45;;;;;;;9.48;4.22;;;22.90;99.90;;;;;;5067903;23;20022;-76
2021/06/18 01:32:56;;;;;;;6.15;3.85;;;23.00;99.90;;;;;;5064801;23;20073;-76
2021/06/18 01:35:01;;;;;;;8.85;3.45;;;22.80;99.90;;;;;;5067761;23;20522;-76
2021/06/18 01:37:08;;;;;;;6.85;3.67;;;22.90;99.90;;;;;;5065037;23;20022;-76
2021/06/18 01:39:11;;;;;;;10.57;3.70;;;23.00;99.90;;;;;;5066684;23;20022;-76
2021/06/18 01:41:19;;;;;;;4.80;2.88;;;22.90;99.90;;;;;;5068792;23;20021;-76
2021/06/18 01:43:24;;;;;;;6.32;3.55;;;22.70;99.90;;;;;;5072307;23;20025;-75
2021/06/18 01:45:30;;;;;;;4.10;3.28;;;22.60;99.90;;;;;;5070644;23;20022;-77
2021/06/18 01:47:33;;;;;;;6.35;3.70;;;22.60;99.90;;;;;;5066590;23;20045;-76
2021/06/18 01:49:39;;;;;;;7.35;3.08;;;22.70;99.90;;;;;;5067426;23;20499;-77
2021/06/18 01:51:44;;;;;;;7.05;3.20;;;22.60;99.90;;;;;;5089297;23;20104;-75
2021/06/18 01:53:48;;;;;;;;;;;22.50;99.90;;;;;;5066198;23;20022;-75
2021/06/18 01:55:52;;;;;;;3.67;2.72;;;22.50;99.90;;;;;;5067311;23;19971;-77
2021/06/18 01:57:59;;;;;;;6.40;2.83;;;22.50;99.90;;;;;;5068695;23;20041;-76
2021/06/18 02:00:05;;;;;;;6.05;2.53;;;22.40;99.90;;;;;;5068672;23;20577;-76
2021/06/18 02:02:11;;;;;;;6.97;3.13;;;22.50;99.90;;;;;;5091397;23;20535;-77
2021/06/18 02:04:18;;;;;;;6.82;2.88;;;22.50;99.90;;;;;;5067009;23;20024;-76
2021/06/18 02:06:23;;;;;;;6.35;2.60;;;22.50;99.90;;;;;;5068407;23;20014;-76
2021/06/18 02:08:27;;;;;;;4.22;2.70;;;22.40;99.90;;;;;;5084356;23;20026;-76
2021/06/18 02:10:31;;;;;;;8.20;2.67;;;22.40;99.90;;;;;;5093417;23;20071;-76
2021/06/18 02:12:36;;;;;;;6.75;2.83;;;22.50;99.90;;;;;;5092095;23;20092;-76
2021/06/18 02:14:43;;;;;;;6.50;2.25;;;22.60;99.90;;;;;;5091003;23;20029;-75
2021/06/18 02:16:51;;;;;;;5.72;2.40;;;22.70;99.90;;;;;;5092557;23;20136;-75
2021/06/18 02:18:57;;;;;;;7.38;2.70;;;22.70;99.90;;;;;;5091914;23;20395;-76
2021/06/18 02:21:01;;;;;;;5.40;2.40;;;22.80;99.90;;;;;;5092563;23;20021;-76
2021/06/18 02:23:05;;;;;;;6.50;1.92;;;22.90;99.90;;;;;;5066097;23;20014;-75
2021/06/18 02:25:11;;;;;;;6.22;2.10;;;22.90;99.90;;;;;;5092498;23;20371;-76
2021/06/18 02:27:15;;;;;;;9.45;2.33;;;22.90;99.90;;;;;;5092100;23;20021;-76
2021/06/18 02:29:19;;;;;;;6.70;2.40;;;23.20;99.90;;;;;;5092161;23;20028;-76
2021/06/18 02:31:23;;;;;;;3.17;2.10;;;23.30;99.90;;;;;;5090742;23;20028;-76
2021/06/18 02:33:27;;;;;;;6.20;2.25;;;23.50;99.90;;;;;;5092763;23;20022;-76
2021/06/18 02:35:32;;;;;;;5.47;2.38;;;23.50;99.90;;;;;;5092039;23;20043;-76
2021/06/18 02:37:35;;;;;;;3.97;1.80;;;23.50;99.90;;;;;;5092282;23;20022;-76
2021/06/18 02:39:39;;;;;;;6.78;1.80;;;23.30;99.90;;;;;;5092381;23;20025;-76
2021/06/18 02:41:42;;;;;;;4.78;2.10;;;23.20;99.90;;;;;;5093896;23;20020;-75
2021/06/18 02:43:46;;;;;;;8.82;2.47;;;23.10;99.90;;;;;;5067083;23;20418;-75
2021/06/18 02:45:49;;;;;;;4.22;1.77;;;23.20;99.90;;;;;;5067745;23;20032;-74
2021/06/18 02:47:58;;;;;;;7.72;2.25;;;22.90;99.90;;;;;;5094181;23;20088;-75
2021/06/18 02:50:07;;;;;;;6.30;2.15;;;23.00;99.90;;;;;;5092594;23;20501;-74
2021/06/18 02:52:20;;;;;;;5.85;2.58;;;23.10;99.90;;;;;;5093534;23;20022;-73
2021/06/18 02:54:31;;;;;;;9.13;2.35;;;23.20;99.90;;;;;;5092630;23;20466;-76
2021/06/18 02:56:39;;;;;;;5.60;2.45;;;23.10;99.90;;;;;;5092641;23;20021;-77
2021/06/18 02:58:50;;;;;;;5.13;2.60;;;23.10;99.90;;;;;;5092186;23;20025;-76
2021/06/18 03:00:54;;;;;;;9.93;2.65;;;23.10;99.90;;;;;;5092333;23;20107;-76
2021/06/18 03:02:59;;;;;;;5.35;2.75;;;23.10;99.90;;;;;;5066498;23;20018;-77
2021/06/18 03:05:05;;;;;;;5.55;2.20;;;23.20;99.90;;;;;;5092063;23;20022;-76
2021/06/18 03:07:15;;;;;;;6.30;2.20;;;23.10;99.90;;;;;;5092044;23;20021;-76
2021/06/18 03:09:23;;;;;;;5.40;2.60;;;23.00;99.90;;;;;;5092149;23;20018;-76
2021/06/18 03:11:29;;;;;;;9.00;2.78;;;23.00;99.90;;;;;;5090660;23;20443;-76
2021/06/18 03:13:35;;;;;;;9.30;2.90;;;23.00;99.90;;;;;;5092076;23;20025;-76
2021/06/18 03:15:41;;;;;;;3.80;2.58;;;23.00;99.90;;;;;;5091764;23;20025;-76
2021/06/18 03:17:45;;;;;;;10.50;2.83;;;23.00;99.90;;;;;;5092268;23;20076;-77
2021/06/18 03:19:52;;;;;;;8.52;3.08;;;23.00;99.90;;;;;;5092463;23;20022;-77
2021/06/18 03:21:57;;;;;;;11.80;3.42;;;23.00;99.90;;;;;;5092285;23;20021;-76
2021/06/18 03:24:04;;;;;;;9.30;3.55;;;23.10;99.90;;;;;;5093243;23;20029;-75
2021/06/18 03:26:08;;;;;;;12.73;3.08;;;23.20;99.90;;;;;;5092142;23;20395;-75
2021/06/18 03:28:13;;;;;;;4.38;2.88;;;23.30;99.90;;;;;;5091070;23;20566;-76
2021/06/18 03:30:17;;;;;;;6.35;3.10;;;23.40;99.90;;;;;;5092118;23;20023;-75
2021/06/18 03:32:24;;;;;;;9.85;2.80;;;23.30;99.90;;;;;;5092217;23;20017;-74
2021/06/18 03:34:28;;;;;;;5.82;2.70;;;23.40;99.90;;;;;;5092285;23;20021;-75
2021/06/18 03:36:32;;;;;;;7.68;2.85;;;23.60;99.90;;;;;;5092366;23;20359;-75
2021/06/18 03:38:37;;;;;;;8.82;3.05;;;23.80;99.90;;;;;;5091750;23;20321;-75
2021/06/18 03:40:42;;;;;;;9.63;2.67;;;23.80;99.90;;;;;;5092083;23;20040;-76
2021/06/18 03:42:45;;;;;;;;;;;23.80;99.90;;;;;;5092799;23;20472;-75
2021/06/18 03:44:48;;;;;;;7.65;3.22;;;23.90;99.90;;;;;;5091958;23;19920;-74
2021/06/18 03:46:52;;;;;;;10.05;3.10;;;23.70;99.90;;;;;;5091551;23;20036;-78
2021/06/18 03:48:57;;;;;;;10.40;2.58;;;23.50;99.90;;;;;;5092053;23;20343;-77
2021/06/18 03:51:00;;;;;;;12.02;3.22;;;23.50;99.90;;;;;;5066666;23;20416;-77
2021/06/18 03:53:03;;;;;;;8.27;2.30;;;23.50;99.90;;;;;;5092642;23;20022;-77
2021/06/18 03:55:09;;;;;;;5.93;2.60;;;23.60;99.90;;;;;;5090801;23;20037;-76
2021/06/18 03:57:17;;;;;;;11.68;3.70;;;23.80;99.90;;;;;;5091988;23;20072;-75
2021/06/18 03:59:22;;;;;;;13.60;3.20;;;23.90;99.90;;;;;;5091425;23;20021;-75
2021/06/18 04:01:26;;;;;;;8.32;3.55;;;23.90;99.90;;;;;;5092280;23;20028;-75
2021/06/18 04:03:31;;;;;;;7.57;3.00;;;23.90;99.90;;;;;;5092236;23;20046;-77
2021/06/18 04:05:37;;;;;;;8.75;3.45;;;23.70;99.90;;;;;;5091427;23;20123;-75
2021/06/18 04:07:44;;;;;;;6.70;3.30;;;23.60;99.90;;;;;;5091959;23;20025;-76
2021/06/18 04:09:48;;;;;;;11.23;3.65;;;23.70;99.90;;;;;;5091403;23;20021;-76
2021/06/18 04:11:51;;;;;;;6.65;3.08;;;23.60;99.90;;;;;;5090546;23;20431;-76
2021/06/18 04:13:56;;;;;;;5.07;3.00;;;23.80;99.90;;;;;;5090615;23;20021;-76
2021/06/18 04:16:00;;;;;;;6.85;3.22;;;23.90;99.90;;;;;;5090511;23;20466;-76
2021/06/18 04:18:04;;;;;;;6.70;3.38;;;24.10;99.90;;;;;;5091736;23;20017;-76
2021/06/18 04:20:08;;;;;;;12.87;3.87;;;24.10;99.90;;;;;;5091641;23;20502;-75
2021/06/18 04:22:14;;;;;;;;;;;24.10;99.90;;;;;;5092549;23;20017;-75
2021/06/18 04:24:17;;;;;;;10.32;4.07;;;24.20;99.90;;;;;;5092134;23;19917;-76
2021/06/18 04:26:23;;;;;;;8.75;4.75;;;24.10;99.90;;;;;;5091499;23;20027;-76
2021/06/18 04:28:26;;;;;;;14.07;4.85;;;24.20;99.90;;;;;;5091580;23;20061;-75
2021/06/18 04:30:31;;;;;;;7.70;4.10;;;24.10;99.90;;;;;;5091761;23;20036;-75
2021/06/18 04:32:35;;;;;;;13.13;4.28;;;24.10;99.90;;;;;;5090188;23;20404;-75
2021/06/18 04:34:38;;;;;;;8.07;4.22;;;24.00;99.90;;;;;;5091058;23;20463;-77
2021/06/18 04:36:41;;;;;;;15.02;4.78;;;23.80;99.90;;;;;;5090950;23;20087;-76
2021/06/18 04:38:44;;;;;;;7.90;4.20;;;23.80;99.90;;;;;;5091093;23;20028;-77
2021/06/18 04:40:49;;;;;;;15.43;5.10;;;23.80;99.90;;;;;;5091269;23;20089;-74
2021/06/18 04:42:52;;;;;;;7.65;4.10;;;23.70;99.90;;;;;;5093246;23;20028;-77
2021/06/18 04:44:56;;;;;;;11.80;4.53;;;23.70;99.90;;;;;;5091207;23;20014;-74
2021/06/18 04:47:00;;;;;;;8.13;4.68;;;23.60;99.90;;;;;;5091396;23;20021;-74
2021/06/18 04:49:03;;;;;;;8.82;4.82;;;23.60;99.90;;;;;;5089689;23;20072;-77
2021/06/18 04:51:07;;;;;;;12.73;4.70;;;23.70;99.90;;;;;;5092555;23;20028;-77
2021/06/18 04:53:10;;;;;;;6.75;4.05;;;23.60;99.90;;;;;;5094065;23;20021;-75
2021/06/18 04:55:17;;;;;;;6.82;4.40;;;23.70;99.90;;;;;;5094108;23;20021;-75
2021/06/18 04:57:21;;;;;;;8.77;4.05;;;23.70;99.90;;;;;;5093991;23;20037;-77
2021/06/18 04:59:24;;;;;;;12.40;4.50;;;23.70;99.90;;;;;;5090320;23;20024;-74
2021/06/18 05:01:27;;;;;;;11.20;4.72;;;23.60;99.90;;;;;;5091258;23;20092;-77
2021/06/18 05:03:31;;;;;;;12.63;4.63;;;23.40;99.90;;;;;;5091466;23;20026;-74
2021/06/18 05:05:34;;;;;;;6.22;4.30;;;23.40;99.90;;;;;;5065566;23;20080;-75
2021/06/18 05:07:37;;;;;;;11.10;4.40;;;23.40;99.90;;;;;;5091561;23;20027;-77
2021/06/18 05:09:40;;;;;;;11.10;4.82;;;23.30;99.90;;;;;;5091816;23;20022;-77
2021/06/18 05:11:43;;;;;;;9.13;4.35;;;23.30;99.90;;;;;;5091744;23;20390;-78
2021/06/18 05:13:46;;;;;;;14.40;4.80;;;23.40;99.90;;;;;;5091691;23;20029;-77
2021/06/18 05:15:50;;;;;;;9.40;4.63;;;23.50;99.90;;;;;;5090607;23;20017;-76
2021/06/18 05:17:53;;;;;;;10.82;4.03;;;23.60;99.90;;;;;;5091344;23;20138;-75
2021/06/18 05:19:58;;;;;;;13.40;4.57;;;23.70;99.90;;;;;;5090635;23;20025;-75
2021/06/18 05:22:01;;;;;;;11.40;4.75;;;23.70;99.90;;;;;;5089364;23;20033;-76
2021/06/18 05:24:06;;;;;;;11.60;4.93;;;23.80;99.90;;;;;;5091499;23;20022;-75
2021/06/18 05:26:09;;;;;;;17.65;4.78;;;23.80;99.90;;;;;;5090720;23;20028;-77
2021/06/18 05:28:12;;;;;;;12.13;4.57;;;24.10;99.90;;;;;;5091273;23;20026;-78
2021/06/18 05:30:17;;;;;;;15.57;4.53;;;24.20;99.90;;;;;;5093146;23;20436;-76
2021/06/18 05:32:20;;;;;;;17.30;4.78;;;24.20;99.90;;;;;;5093430;23;20341;-77
2021/06/18 05:34:23;;;;;;;10.05;4.18;;;24.30;99.90;;;;;;5092813;23;20014;-76
2021/06/18 05:36:28;;;;;;;12.05;3.92;;;24.40;99.90;;;;;;5092412;23;20072;-77
2021/06/18 05:38:31;;;;;;;11.25;4.45;;;24.30;99.90;;;;;;5092570;23;20084;-76
2021/06/18 05:40:34;;;;;;;10.48;3.85;;;24.30;99.90;;;;;;5090942;23;20367;-77
2021/06/18 05:42:37;;;;;;;9.77;4.25;;;24.40;99.90;;;;;;5092481;23;20020;-76
2021/06/18 05:44:40;;;;;;;8.50;3.65;;;24.50;99.90;;;;;;5092420;23;20397;-77
2021/06/18 05:46:43;;;;;;;11.27;3.67;;;24.60;99.90;;;;;;5091962;23;20048;-76
2021/06/18 05:48:46;;;;;;;11.88;3.78;;;24.60;99.90;;;;;;5092294;23;20080;-77
2021/06/18 05:50:51;;;;;;;9.82;3.50;;;24.80;99.90;;;;;;5091715;23;20020;-77
2021/06/18 05:52:56;;;;;;;9.25;3.60;;;24.90;99.90;;;;;;5092370;23;20447;-77
2021/06/18 05:54:59;;;;;;;8.57;3.97;;;24.90;99.90;;;;;;5066668;23;20022;-73
2021/06/18 05:57:03;;;;;;;12.60;4.32;;;25.10;99.90;;;;;;5094558;23;20095;-76
2021/06/18 05:59:06;;;;;;;9.85;4.32;;;25.00;99.90;;;;;;5096777;23;20021;-76
2021/06/18 06:01:09;;;;;;;8.88;4.07;;;25.00;99.90;;;;;;5097218;23;20083;-77
2021/06/18 06:03:33;;;;;;;9.90;4.20;;;25.10;99.90;;;;;;5095565;23;20123;-75
2021/06/18 06:05:37;;;;;;;10.03;4.27;;;25.20;99.90;;;;;;5092542;23;20463;-75
2021/06/18 06:07:45;;;;;;;8.63;4.22;;;25.30;99.90;;;;;;5090439;23;20025;-76
2021/06/18 06:09:49;;;;;;;8.88;3.75;;;25.40;99.90;;;;;;5089913;23;20072;-75
2021/06/18 06:11:52;;;;;;;;;;;25.50;99.90;;;;;;5093062;23;20021;-74
2021/06/18 06:14:03;;;;;;;10.88;4.68;;;25.40;99.90;;;;;;5091843;23;19921;-77
2021/06/18 06:16:06;;;;;;;9.65;4.68;;;25.40;99.90;;;;;;5091994;23;20379;-76
2021/06/18 06:18:09;;;;;;;17.15;5.10;;;25.20;99.90;;;;;;5092571;23;20393;-76
2021/06/18 06:20:16;;;;;;;12.00;4.50;;;25.20;99.90;;;;;;5092063;23;20022;-76
2021/06/18 06:22:19;;;;;;;11.68;4.60;;;25.20;99.90;;;;;;5092254;23;20535;-73
2021/06/18 06:24:22;;;;;;;8.18;4.20;;;25.20;99.90;;;;;;5092073;23;20025;-78
2021/06/18 06:26:27;;;;;;;13.23;5.10;;;25.20;99.90;;;;;;5091938;23;20022;-77
2021/06/18 06:28:30;;;;;;;12.20;5.43;;;25.10;99.90;;;;;;5091739;23;20028;-75
2021/06/18 06:30:33;;;;;;;11.00;5.00;;;25.00;99.90;;;;;;5092327;23;20399;-76
2021/06/18 06:32:36;;;;;;;7.00;3.83;;;25.00;99.90;;;;;;5091627;23;20084;-76
2021/06/18 06:34:39;;;;;;;9.32;4.43;;;25.10;99.90;;;;;;5092714;23;20018;-78
2021/06/18 06:36:42;;;;;;;9.65;4.40;;;25.10;99.90;;;;;;5091728;23;20080;-76
2021/06/18 06:38:45;;;;;;;10.60;4.53;;;25.20;99.90;;;;;;5091860;23;20028;-77
2021/06/18 06:40:49;;;;;;;8.88;3.90;;;25.20;99.90;;;;;;5091604;23;20586;-74
2021/06/18 06:42:53;;;;;;;11.25;4.18;;;25.20;99.90;;;;;;5092116;23;20021;-77
2021/06/18 06:44:56;;;;;;;10.15;4.55;;;25.30;99.90;;;;;;5065562;23;20069;-77
2021/06/18 06:46:59;;;;;;;14.57;4.88;;;25.40;99.90;;;;;;5092107;23;20032;-77
2021/06/18 06:49:02;;;;;;;11.07;3.97;;;25.50;99.90;;;;;;5090633;23;20021;-75
2021/06/18 06:51:05;;;;;;;10.07;4.60;;;25.50;99.90;;;;;;5091952;23;20017;-75
2021/06/18 06:53:09;;;;;;;9.18;4.03;;;25.50;99.90;;;;;;5093925;23;20086;-77
2021/06/18 06:55:13;;;;;;;10.93;4.40;;;25.60;99.90;;;;;;5091527;23;20510;-77
2021/06/18 06:57:18;;;;;;;13.17;4.00;;;25.70;99.90;;;;;;5092342;23;20033;-76
2021/06/18 06:59:22;;;;;;;12.00;3.90;;;25.50;99.90;;;;;;5092052;23;20434;-76
2021/06/18 07:01:25;;;;;;;16.35;3.65;;;25.20;99.90;;;;;;5068823;23;20036;-75
2021/06/18 07:03:29;;;;;;;11.52;3.60;;;25.00;99.90;;;;;;5096800;23;20347;-77
2021/06/18 07:05:32;;;;;;;9.52;3.80;;;25.10;99.90;;;;;;5098412;23;20018;-77
2021/06/18 07:07:36;;;;;;;12.18;3.85;;;25.10;99.90;;;;;;5091438;23;20067;-75
2021/06/18 07:09:39;;;;;;;9.43;3.25;;;25.20;99.90;;;;;;5090124;23;20143;-74
2021/06/18 07:11:42;;;;;;;12.38;3.55;;;25.20;99.90;;;;;;5091652;23;20026;-76
2021/06/18 07:13:45;;;;;;;8.23;3.60;;;25.10;99.90;;;;;;5092272;23;20023;-77
2021/06/18 07:15:51;;;;;;;12.27;3.65;;;25.10;99.90;;;;;;5091269;23;20134;-76
2021/06/18 07:17:56;;;;;;;13.65;3.60;;;25.30;99.90;;;;;;5091750;23;20364;-76
2021/06/18 07:20:01;;;;;;;15.68;3.78;;;25.50;99.90;;;;;;5091473;23;20469;-76
2021/06/18 07:22:04;;;;;;;12.80;4.10;;;25.70;99.90;;;;;;5091444;23;20435;-77
2021/06/18 07:24:07;;;;;;;10.27;3.72;;;25.50;99.90;;;;;;5091239;23;20352;-76
2021/06/18 07:26:10;;;;;;;7.97;3.22;;;25.60;99.90;;;;;;5091558;23;20017;-78
2021/06/18 07:28:13;;;;;;;13.63;3.65;;;25.80;99.90;;;;;;5091169;23;20674;-77
2021/06/18 07:30:18;;;;;;;13.88;3.60;;;25.80;99.90;;;;;;5091170;23;20348;-74
2021/06/18 07:32:22;;;;;;;9.20;3.83;;;26.10;99.90;;;;;;5090156;23;20017;-75
2021/06/18 07:34:26;;;;;;;14.73;3.65;;;26.00;99.90;;;;;;5092035;23;20030;-76
2021/06/18 07:36:29;;;;;;;9.05;3.92;;;26.10;99.90;;;;;;5091511;23;20021;-76
2021/06/18 07:38:32;;;;;;;9.10;3.30;;;26.20;99.90;;;;;;5090786;23;20025;-76
2021/06/18 07:40:35;;;;;;;15.32;3.40;;;26.30;99.60;;;;;;5091407;23;20029;-78
2021/06/18 07:42:39;;;;;;;12.55;3.83;;;26.20;99.90;;;;;;5091362;23;20033;-78
2021/06/18 07:44:42;;;;;;;17.65;3.88;;;26.10;99.70;;;;;;5091748;23;20022;-75
2021/06/18 07:46:45;;;;;;;10.43;2.90;;;26.10;99.40;;;;;;5091620;23;21014;-76
2021/06/18 07:48:50;;;;;;;11.00;3.08;;;26.20;99.20;;;;;;5091106;23;20083;-76
2021/06/18 07:50:53;;;;;;;17.48;3.42;;;26.40;98.90;;;;;;5091453;23;20029;-76
2021/06/18 07:52:56;;;;;;;13.48;3.22;;;26.50;98.80;;;;;;5091565;23;20021;-75
2021/06/18 07:55:01;;;;;;;10.73;3.22;;;26.50;98.50;;;;;;5091583;23;20028;-78
2021/06/18 07:57:04;;;;;;;13.13;3.13;;;26.70;98.90;;;;;;5091738;23;20026;-77
2021/06/18 07:59:07;;;;;;;11.38;2.90;;;26.60;97.80;;;;;;5091525;23;20021;-75
2021/06/18 08:01:10;;;;;;;8.10;3.10;;;26.60;98.10;;;;;;5090142;23;20021;-76
2021/06/18 08:03:13;;;;;;;4.97;2.63;;;26.50;97.90;;;;;;5091495;23;20097;-75
2021/06/18 08:05:18;;;;;;;9.05;2.35;;;26.30;98.20;;;;;;5092571;23;20230;-75
2021/06/18 08:07:22;;;;;;;12.77;3.08;;;26.40;98.20;;;;;;5092939;23;20026;-77
2021/06/18 08:09:25;;;;;;;9.25;2.88;;;26.30;98.70;;;;;;5093258;23;20103;-75
2021/06/18 08:11:28;;;;;;;14.50;3.47;;;26.50;98.50;;;;;;5065521;23;20021;-75
2021/06/18 08:13:31;;;;;;;12.20;3.85;;;26.80;98.60;;;;;;5089834;23;20352;-75
2021/06/18 08:15:34;;;;;;;11.32;3.38;;;26.70;98.20;;;;;;5091379;23;20032;-77
2021/06/18 08:17:37;;;;;;;10.27;3.28;;;26.70;98.00;;;;;;5091467;23;20084;-73
2021/06/18 08:19:44;;;;;;;12.88;3.35;;;26.70;98.10;;;;;;5091231;23;20057;-75
2021/06/18 08:21:48;;;;;;;11.60;3.00;;;26.60;97.90;;;;;;5091328;23;20028;-72
2021/06/18 08:23:51;;;;;;;8.77;3.00;;;26.40;98.30;;;;;;5091801;23;20021;-75
2021/06/18 08:25:54;;;;;;;8.00;3.25;;;26.60;98.30;;;;;;5092057;23;20399;-75
2021/06/18 08:27:57;;;;;;;9.45;2.83;;;26.50;97.70;;;;;;5089948;23;20025;-75
2021/06/18 08:30:01;;;;;;;8.32;3.20;;;26.70;98.00;;;;;;5091378;23;20022;-77
2021/06/18 08:32:23;;;;;;;9.88;2.80;;;26.50;97.90;;;;;;5090652;23;20017;-75
2021/06/18 08:34:26;;;;;;;14.27;4.28;;;26.30;98.70;;;;;;5091050;23;20017;-78
2021/06/18 08:36:29;;;;;;;9.70;3.05;;;26.50;98.40;;;;;;5090035;23;20018;-76
2021/06/18 08:38:43;;;;;;;12.88;3.10;;;26.60;97.70;;;;;;5065432;23;20096;-76
2021/06/18 08:40:46;;;;;;;9.80;3.80;;;26.80;97.60;;;;;;5064652;23;20529;-75
2021/06/18 08:42:49;;;;;;;14.68;3.00;;;27.00;97.80;;;;;;5090879;23;20034;-75
2021/06/18 08:44:52;;;;;;;14.60;2.78;;;27.10;96.60;;;;;;5090957;23;20017;-77
2021/06/18 08:46:56;;;;;;;9.93;3.03;;;27.10;97.10;;;;;;5090789;23;20025;-77
2021/06/18 08:48:59;;;;;;;12.52;2.78;;;27.10;97.20;;;;;;5091218;23;20439;-77
2021/06/18 08:51:04;;;;;;;9.20;2.47;;;27.20;96.80;;;;;;5091754;23;20056;-78
2021/06/18 08:53:10;;;;;;;9.23;2.80;;;27.10;96.40;;;;;;5089450;23;20089;-77
2021/06/18 08:55:17;;;;;;;8.18;2.80;;;27.10;96.30;;;;;;5091272;23;20101;-76
2021/06/18 08:57:22;;;;;;;7.00;2.67;;;27.20;96.30;;;;;;5090891;23;20018;-75
2021/06/18 08:59:25;;;;;;;7.57;2.63;;;27.20;96.40;;;;;;5090859;23;20025;-75
2021/06/18 09:01:29;;;;;;;8.20;3.30;;;27.30;96.20;;;;;;5092783;23;20013;-75
2021/06/18 09:03:35;;;;;;;9.65;3.08;;;27.30;96.20;;;;;;5041339;23;20022;-78
2021/06/18 09:05:38;;;;;;;8.75;3.22;;;27.30;95.90;;;;;;5066057;23;20033;-73
2021/06/18 09:07:52;;;;;;;6.88;3.22;;;27.30;95.80;;;;;;5089570;23;20076;-74
2021/06/18 09:09:55;;;;;;;6.15;2.90;;;27.50;95.70;;;;;;5091191;23;20021;-73
2021/06/18 09:12:02;;;;;;;5.97;2.40;;;27.40;95.20;;;;;;5092727;23;20101;-75
2021/06/18 09:14:19;;;;;;;8.02;3.08;;;27.40;95.40;;;;;;5090534;23;20076;-75
2021/06/18 09:16:22;;;;;;;10.10;3.10;;;27.50;95.50;;;;;;5064697;23;20085;-75
2021/06/18 09:18:32;;;;;;;6.82;2.65;;;27.60;95.30;;;;;;5090903;23;20022;-75
2021/06/18 09:20:36;;;;;;;10.25;3.20;;;27.60;94.80;;;;;;5092095;23;20025;-74
2021/06/18 09:22:40;;;;;;;18.40;2.88;;;27.60;94.60;;;;;;5089763;23;20211;-73
2021/06/18 09:24:47;;;;;;;14.80;2.53;;;27.50;94.80;;;;;;5089371;23;20057;-75
2021/06/18 09:26:50;;;;;;;9.23;3.00;;;27.40;94.60;;;;;;5086345;23;20352;-76
2021/06/18 09:29:03;;;;;;;9.00;2.80;;;27.40;95.20;;;;;;5088724;23;20084;-76
2021/06/18 09:31:06;;;;;;;7.72;3.40;;;27.60;94.70;;;;;;5087270;23;20021;-73
2021/06/18 09:33:19;;;;;;;9.20;2.83;;;27.70;94.80;;;;;;5088330;23;20029;-74
2021/06/18 09:35:22;;;;;;;14.82;3.15;;;27.90;94.80;;;;;;5089293;23;20025;-73
2021/06/18 09:37:30;;;;;;;7.03;2.20;;;27.90;94.50;;;;;;5089117;23;20037;-72
2021/06/18 09:39:33;;;;;;;11.15;2.55;;;28.00;94.70;;;;;;5089399;23;20021;-72
2021/06/18 09:41:39;;;;;;;9.27;3.38;;;28.10;93.90;;;;;;5089370;23;20021;-73
2021/06/18 09:43:43;;;;;;;11.73;3.55;;;28.10;94.40;;;;;;5089823;23;20022;-75
2021/06/18 09:45:55;;;;;;;12.85;2.88;;;28.20;93.70;;;;;;5091130;23;20466;-76
2021/06/18 09:48:08;;;;;;;6.93;2.80;;;28.10;93.40;;;;;;5090866;23;20028;-74
2021/06/18 09:50:26;;;;;;;9.00;2.75;;;28.20;93.70;;;;;;5090679;23;20022;-74
2021/06/18 09:52:30;;;;;;;10.30;2.33;;;28.10;93.30;;;;;;5089623;23;20096;-73
2021/06/18 09:54:38;;;;;;;7.57;2.40;;;28.10;93.30;;;;;;5089184;23;20033;-75
2021/06/18 09:56:45;;;;;;;8.77;2.60;;;28.00;92.90;;;;;;5088454;23;20097;-76
2021/06/18 09:58:48;;;;;;;8.05;2.83;;;27.90;93.00;;;;;;5088339;23;20574;-77
2021/06/18 10:01:12;;;;;;;11.23;2.40;;;27.90;93.00;;;;;;5089421;23;20479;-77
2021/06/18 10:03:15;;;;;;;9.05;2.50;;;27.80;93.00;;;;;;5088662;23;20029;-77
2021/06/18 10:05:20;;;;;;;9.07;3.15;;;27.80;93.30;;;;;;5089188;23;20513;-77
2021/06/18 10:07:27;;;;;;;9.65;2.47;;;27.70;93.80;;;;;;5089365;23;20104;-74
2021/06/18 10:09:37;;;;;;;9.88;2.70;;;27.90;93.00;;;;;;5064712;23;20041;-77
2021/06/18 10:11:45;;;;;;;9.15;2.67;;;27.90;93.40;;;;;;5088891;23;20021;-77
2021/06/18 10:13:50;;;;;;;8.85;2.53;;;27.90;93.30;;;;;;5067747;23;20032;-75
2021/06/18 10:15:55;;;;;;;;;;;27.90;93.10;;;;;;5095610;23;20021;-75
2021/06/18 10:17:58;;;;;;;8.10;3.33;;;27.90;93.20;;;;;;5068004;23;19969;-76
2021/06/18 10:20:04;;;;;;;6.03;3.20;;;28.00;93.60;;;;;;5066531;23;20014;-76
2021/06/18 10:22:10;;;;;;;6.53;2.60;;;27.90;93.60;;;;;;5091045;23;20507;-76
2021/06/18 10:24:16;;;;;;;9.25;2.45;;;28.00;93.40;;;;;;5092653;23;20101;-77
2021/06/18 10:26:21;;;;;;;5.63;2.00;;;28.10;93.20;;;;;;5091240;23;20021;-78
2021/06/18 10:28:27;;;;;;;5.15;2.20;;;28.20;92.30;;;;;;5091822;23;20447;-75
2021/06/18 10:30:32;;;;;;;8.38;2.10;;;28.00;92.00;;;;;;5091994;23;20024;-76
2021/06/18 10:32:37;;;;;;;6.75;2.20;;;28.10;92.00;;;;;;5066315;23;20422;-77
2021/06/18 10:34:40;;;;;;;10.45;2.88;;;28.40;91.60;;;;;;5092208;23;20317;-76
2021/06/18 10:36:44;;;;;;;6.32;2.45;;;28.40;91.90;;;;;;5066822;23;20037;-76
2021/06/18 10:38:59;;;;;;;6.80;2.38;;;28.40;91.40;;;;;;5091928;23;20017;-75
2021/06/18 10:41:22;;;;;;;5.22;1.95;;;28.20;91.20;;;;;;5095494;23;20097;-78
2021/06/18 10:43:37;;;;;;;8.70;2.22;;;28.00;91.40;;;;;;5092084;23;20055;-76
2021/06/18 10:46:09;;;;;;;7.95;2.35;;;27.90;92.10;;;;;;5066788;23;20022;-77
2021/06/18 10:48:14;;;;;;;10.30;2.30;;;28.10;91.80;;;;;;5090475;23;20021;-76